Time;durP1;ratioP1;P1;durP2;ratioP2;P2;SDS_P1;SDS_P2;PMS_P1;PMS_P2;Temp;Humidity;BMP_temperature;BMP_pressure;BME280_temperature;BME280_humidity;BME280_pressure;Samples;Min_cycle;Max_cycle;Signal;HPM_P1;HPM_P2
2023/08/30 00:01:16;;;;;;;3.72;0.60;;;;;;;14.38;56.48;91566.56;5017277;28;20049;-80
2023/08/30 00:03:42;;;;;;;0.43;0.40;;;;;;;14.32;57.23;91552.88;5016742;28;20034;-80
2023/08/30 00:06:07;;;;;;;0.50;0.50;;;;;;;14.26;56.66;91567.38;5015425;28;20041;-80
2023/08/30 00:08:33;;;;;;;0.50;0.50;;;;;;;14.29;55.68;91573.84;5016605;28;20094;-80
2023/08/30 00:10:59;;;;;;;0.50;0.50;;;;;;;14.73;54.27;91560.84;5015458;28;20102;-80
2023/08/30 00:13:26;;;;;;;0.40;0.40;;;;;;;14.67;56.10;91568.19;5015806;28;20060;-79
2023/08/30 00:15:52;;;;;;;0.60;0.60;;;;;;;14.50;55.99;91571.06;5016536;28;20190;-80
2023/08/30 00:18:18;;;;;;;0.50;0.50;;;;;;;14.50;55.64;91573.69;5014871;28;20030;-79
2023/08/30 00:20:44;;;;;;;0.50;0.50;;;;;;;14.55;55.45;91576.16;5014180;28;20038;-80
2023/08/30 00:23:10;;;;;;;0.50;0.50;;;;;;;14.51;55.92;91569.97;4991527;28;20479;-80
2023/08/30 00:25:36;;;;;;;1.05;0.50;;;;;;;14.51;55.48;91569.97;4968492;28;20133;-80
2023/08/30 00:28:02;;;;;;;1.65;0.52;;;;;;;14.42;56.83;91564.06;4996589;28;20027;-80
2023/08/30 00:30:27;;;;;;;0.50;0.50;;;;;;;14.36;57.13;91580.09;5004646;28;20095;-80
2023/08/30 00:32:54;;;;;;;0.43;0.43;;;;;;;14.32;56.87;91568.69;5013694;28;20044;-79
2023/08/30 00:35:20;;;;;;;0.65;0.60;;;;;;;14.26;57.38;91580.53;5015854;28;20438;-80
2023/08/30 00:37:45;;;;;;;0.40;0.40;;;;;;;14.24;57.45;91582.72;5016124;28;20064;-80
2023/08/30 00:40:11;;;;;;;0.50;0.50;;;;;;;14.28;57.17;91580.97;5015624;28;20431;-80
2023/08/30 00:42:37;;;;;;;0.40;0.40;;;;;;;14.21;58.13;91585.22;4998673;28;20040;-79
2023/08/30 00:45:03;;;;;;;0.50;0.50;;;;;;;14.19;57.87;91580.31;4997906;28;20034;-80
2023/08/30 00:47:29;;;;;;;0.50;0.50;;;;;;;14.18;58.29;91588.53;5015421;28;20392;-79
2023/08/30 00:49:55;;;;;;;0.60;0.60;;;;;;;14.12;58.50;91578.22;4998542;28;20056;-79
2023/08/30 00:52:23;;;;;;;0.57;0.57;;;;;;;14.09;58.82;91580.75;4997055;28;20073;-80
2023/08/30 00:54:49;;;;;;;0.77;0.60;;;;;;;14.08;58.57;91572.09;5018593;28;20034;-81
2023/08/30 00:57:15;;;;;;;0.60;0.50;;;;;;;14.12;58.32;91582.75;5019390;28;20121;-80
2023/08/30 00:59:41;;;;;;;0.50;0.50;;;;;;;14.08;59.04;91573.97;5001741;28;20045;-80
2023/08/30 01:02:07;;;;;;;0.47;0.47;;;;;;;14.04;60.11;91573.06;5018783;28;20180;-80
2023/08/30 01:04:33;;;;;;;0.82;0.60;;;;;;;14.00;61.02;91577.47;4981863;28;20073;-80
2023/08/30 01:06:58;;;;;;;0.43;0.43;;;;;;;13.98;58.99;91574.38;5001109;28;20037;-80
2023/08/30 01:09:26;;;;;;;0.40;0.40;;;;;;;14.01;59.23;91576.38;5000672;28;20050;-80
2023/08/30 01:12:00;;;;;;;0.43;0.43;;;;;;;14.08;59.10;91579.22;5018966;28;20045;-80
2023/08/30 01:14:34;;;;;;;0.52;0.52;;;;;;;14.23;58.04;91577.78;5019883;28;20030;-80
2023/08/30 01:17:00;;;;;;;0.32;0.32;;;;;;;14.19;58.36;91582.94;5001167;28;20033;-80
2023/08/30 01:19:46;;;;;;;0.40;0.40;;;;;;;14.28;58.47;91574.94;5001793;28;20049;-80
2023/08/30 01:22:20;;;;;;;0.50;0.50;;;;;;;14.35;58.04;91583.81;5018064;28;20026;-81
2023/08/30 01:25:09;;;;;;;0.50;0.50;;;;;;;14.35;57.83;91593.56;4996663;28;20037;-81
2023/08/30 01:27:37;;;;;;;0.50;0.40;;;;;;;14.50;55.94;91585.00;4983424;28;20037;-81
2023/08/30 01:30:06;;;;;;;0.45;0.45;;;;;;;14.47;56.70;91584.88;5019524;28;20036;-79
2023/08/30 01:32:34;;;;;;;0.40;0.40;;;;;;;14.49;56.61;91588.72;4997042;28;20056;-80
2023/08/30 01:35:01;;;;;;;0.63;0.60;;;;;;;14.58;56.01;91581.50;5000700;28;20025;-80
2023/08/30 01:37:28;;;;;;;0.40;0.40;;;;;;;14.65;56.37;91594.09;5001846;28;20037;-80
2023/08/30 01:39:56;;;;;;;0.47;0.47;;;;;;;14.71;55.27;91589.38;5018830;28;20021;-80
2023/08/30 01:42:25;;;;;;;0.40;0.40;;;;;;;14.71;56.03;91584.13;5018169;28;20099;-80
2023/08/30 01:44:57;;;;;;;0.45;0.38;;;;;;;14.60;56.79;91583.81;5001504;28;20395;-80
2023/08/30 01:47:25;;;;;;;0.50;0.50;;;;;;;14.62;56.46;91586.88;5017392;28;20470;-80
2023/08/30 01:49:53;;;;;;;0.60;0.60;;;;;;;14.74;56.23;91578.19;5019233;28;20495;-79
2023/08/30 01:52:20;;;;;;;0.50;0.50;;;;;;;14.71;56.68;91579.63;5012824;28;20041;-79
2023/08/30 01:54:47;;;;;;;0.65;0.65;;;;;;;14.68;56.76;91577.66;5019070;28;20034;-80
2023/08/30 01:57:13;;;;;;;0.40;0.40;;;;;;;14.68;56.93;91569.75;5000445;28;20061;-79
2023/08/30 01:59:38;;;;;;;0.35;0.35;;;;;;;14.62;57.10;91568.44;4999221;28;20487;-79
2023/08/30 02:02:04;;;;;;;0.55;0.40;;;;;;;14.62;57.03;91568.44;5001097;28;20045;-80
2023/08/30 02:04:32;;;;;;;1.08;0.45;;;;;;;14.62;56.48;91568.44;5000116;28;20041;-80
2023/08/30 02:07:03;;;;;;;0.50;0.50;;;;;;;14.64;56.75;91566.25;4999837;28;20087;-80
2023/08/30 02:09:49;;;;;;;0.40;0.40;;;;;;;14.65;57.08;91565.13;5018118;28;20044;-80
2023/08/30 02:12:17;;;;;;;0.52;0.50;;;;;;;14.69;56.27;91573.91;5001558;28;20525;-80
2023/08/30 02:14:48;;;;;;;0.50;0.50;;;;;;;14.68;55.50;91572.38;5001060;28;20026;-81
2023/08/30 02:17:15;;;;;;;0.40;0.40;;;;;;;14.80;55.55;91576.84;5001004;28;20033;-80
2023/08/30 02:19:45;;;;;;;0.50;0.50;;;;;;;14.85;55.40;91573.22;5000749;28;20513;-80
2023/08/30 02:22:11;;;;;;;0.40;0.40;;;;;;;14.84;55.48;91576.94;5013179;28;20038;-80
2023/08/30 02:24:37;;;;;;;0.40;0.40;;;;;;;14.81;56.09;91572.34;4985268;28;20026;-80
2023/08/30 02:27:03;;;;;;;0.45;0.45;;;;;;;14.81;55.78;91574.97;5008667;28;20030;-81
2023/08/30 02:29:29;;;;;;;0.55;0.50;;;;;;;14.78;55.57;91569.28;5017260;28;20049;-80
2023/08/30 02:31:54;;;;;;;2.63;0.50;;;;;;;14.78;56.49;91564.00;5010646;28;20038;-81
2023/08/30 02:34:21;;;;;;;0.60;0.60;;;;;;;14.75;56.18;91569.94;5017577;28;20044;-80
2023/08/30 02:36:46;;;;;;;0.50;0.50;;;;;;;14.74;56.35;91573.66;5009205;28;20033;-80
2023/08/30 02:39:14;;;;;;;0.50;0.50;;;;;;;14.78;55.88;91569.28;5018369;28;20079;-80
2023/08/30 02:41:40;;;;;;;0.50;0.50;;;;;;;14.83;55.99;91570.91;5000678;28;20546;-80
2023/08/30 02:44:08;;;;;;;0.57;0.57;;;;;;;14.91;56.15;91563.97;5017600;28;20160;-81
2023/08/30 02:46:34;;;;;;;0.40;0.40;;;;;;;14.86;56.07;91561.56;4998426;28;20033;-80
2023/08/30 02:48:59;;;;;;;0.47;0.47;;;;;;;14.81;56.52;91556.53;5016226;28;20050;-80
2023/08/30 02:51:25;;;;;;;0.30;0.30;;;;;;;14.74;56.79;91563.13;4999821;28;20351;-79
2023/08/30 02:53:50;;;;;;;0.40;0.40;;;;;;;14.79;56.47;91556.84;5000295;28;20037;-79
2023/08/30 02:56:16;;;;;;;0.40;0.40;;;;;;;14.81;56.35;91559.16;5017582;28;20048;-80
2023/08/30 02:58:42;;;;;;;0.40;0.40;;;;;;;14.73;57.00;91560.84;5018189;28;20061;-80
2023/08/30 03:01:07;;;;;;;0.40;0.40;;;;;;;14.67;57.21;91556.91;4999663;28;20344;-81
2023/08/30 03:03:33;;;;;;;0.40;0.40;;;;;;;14.60;57.65;91562.75;4999927;28;20038;-80
2023/08/30 03:06:01;;;;;;;0.40;0.40;;;;;;;14.57;57.17;91563.41;5000344;28;20120;-80
2023/08/30 03:08:27;;;;;;;0.50;0.50;;;;;;;14.57;56.14;91550.25;4999204;28;20357;-81
2023/08/30 03:10:53;;;;;;;1.75;0.50;;;;;;;14.66;57.00;91552.72;4999500;28;20064;-80
2023/08/30 03:13:19;;;;;;;0.50;0.50;;;;;;;14.73;56.78;91553.72;4999675;28;20042;-81
2023/08/30 03:15:44;;;;;;;0.60;0.60;;;;;;;14.71;56.92;91555.16;4994694;28;20031;-80
2023/08/30 03:18:10;;;;;;;0.50;0.50;;;;;;;14.71;57.21;91549.88;4991515;28;20097;-80
2023/08/30 03:20:36;;;;;;;0.52;0.52;;;;;;;14.71;57.33;91549.88;4999227;28;20031;-80
2023/08/30 03:23:01;;;;;;;1.27;0.60;;;;;;;14.64;57.31;91554.94;5005730;28;20037;-80
2023/08/30 03:25:30;;;;;;;0.40;0.40;;;;;;;14.66;56.34;91550.88;4990734;28;20058;-81
2023/08/30 03:27:56;;;;;;;0.50;0.50;;;;;;;14.62;57.15;91549.25;4999474;28;20100;-81
2023/08/30 03:30:22;;;;;;;0.40;0.40;;;;;;;14.58;57.55;91549.88;4999459;28;20579;-81
2023/08/30 03:32:48;;;;;;;0.50;0.50;;;;;;;14.62;57.24;91542.09;4998725;28;20125;-81
2023/08/30 03:35:16;;;;;;;0.40;0.40;;;;;;;14.56;57.56;91546.06;5016414;28;20549;-80
2023/08/30 03:37:42;;;;;;;0.50;0.50;;;;;;;14.54;58.37;91549.03;4996277;28;20034;-80
2023/08/30 03:40:09;;;;;;;3.80;0.60;;;;;;;14.52;57.99;91539.91;5016424;28;20049;-80
2023/08/30 03:42:35;;;;;;;0.60;0.60;;;;;;;14.49;58.19;91537.94;5000022;28;20037;-80
2023/08/30 03:45:02;;;;;;;5.15;0.68;;;;;;;14.46;58.49;91541.25;4999949;28;20038;-80
2023/08/30 03:47:29;;;;;;;0.60;0.60;;;;;;;14.44;58.15;91549.47;4997953;28;20037;-80
2023/08/30 03:49:54;;;;;;;0.60;0.60;;;;;;;14.43;57.96;91552.41;5017044;28;20053;-80
2023/08/30 03:52:20;;;;;;;0.45;0.45;;;;;;;14.44;58.00;91553.97;5000079;28;20034;-80
2023/08/30 03:54:46;;;;;;;0.50;0.50;;;;;;;14.51;57.76;91559.44;4998909;28;20034;-80
2023/08/30 03:57:11;;;;;;;0.65;0.60;;;;;;;14.49;57.99;91541.31;5006909;28;20546;-80
2023/08/30 03:59:38;;;;;;;0.57;0.57;;;;;;;14.49;58.19;91548.47;4998265;28;20046;-81
2023/08/30 04:02:04;;;;;;;0.30;0.30;;;;;;;14.50;57.95;91537.59;5015952;28;20041;-80
2023/08/30 04:04:29;;;;;;;0.30;0.30;;;;;;;14.54;57.79;91543.75;4999204;28;20131;-80
2023/08/30 04:06:55;;;;;;;0.40;0.40;;;;;;;14.55;57.96;91549.81;5016966;28;20026;-80
2023/08/30 04:09:21;;;;;;;0.85;0.50;;;;;;;14.52;58.01;91547.78;4996035;28;20045;-81
2023/08/30 04:11:46;;;;;;;0.40;0.40;;;;;;;14.51;57.98;91543.63;4994054;28;20037;-81
2023/08/30 04:14:12;;;;;;;0.50;0.50;;;;;;;14.52;57.91;91545.16;5015440;28;20517;-81
2023/08/30 04:16:37;;;;;;;0.60;0.60;;;;;;;14.59;57.94;91545.41;5017964;28;20032;-80
2023/08/30 04:19:06;;;;;;;0.60;0.60;;;;;;;14.53;58.06;91554.59;4983387;28;20034;-80
2023/08/30 04:21:32;;;;;;;0.50;0.50;;;;;;;14.49;58.04;91554.50;5008055;28;20105;-80
2023/08/30 04:23:58;;;;;;;0.47;0.47;;;;;;;14.57;57.53;91542.34;4979039;28;20148;-79
2023/08/30 04:26:23;;;;;;;0.60;0.50;;;;;;;14.53;57.98;91563.28;4996088;28;20045;-79
2023/08/30 04:28:49;;;;;;;0.40;0.40;;;;;;;14.54;57.58;91551.66;4997168;28;20038;-81
2023/08/30 04:31:15;;;;;;;0.70;0.70;;;;;;;14.57;57.87;91545.75;5012225;28;20069;-81
2023/08/30 04:33:41;;;;;;;1.15;0.68;;;;;;;14.57;57.94;91552.88;4983230;28;20522;-82
2023/08/30 04:36:09;;;;;;;0.55;0.50;;;;;;;14.56;57.96;91554.72;4986372;28;20038;-81
2023/08/30 04:38:34;;;;;;;0.70;0.50;;;;;;;14.58;57.44;91539.34;5002048;28;20041;-81
2023/08/30 04:41:04;;;;;;;0.45;0.45;;;;;;;14.61;58.25;91556.34;5002176;28;20041;-86
2023/08/30 04:43:33;;;;;;;1.65;0.60;;;;;;;14.62;57.56;91543.97;4983119;28;20582;-82
2023/08/30 04:45:58;;;;;;;0.60;0.60;;;;;;;14.64;57.66;91547.06;4998143;28;20057;-82
2023/08/30 04:48:25;;;;;;;0.57;0.57;;;;;;;14.67;57.78;91547.13;4988494;28;20555;-82
2023/08/30 04:50:58;;;;;;;0.50;0.50;;;;;;;14.62;57.38;91555.28;4996435;28;20030;-84
2023/08/30 04:53:24;;;;;;;0.50;0.50;;;;;;;14.60;58.16;91546.94;4992684;28;20039;-81
2023/08/30 04:55:50;;;;;;;0.88;0.50;;;;;;;14.62;58.06;91550.00;4996581;28;20025;-80
2023/08/30 04:58:15;;;;;;;1.17;0.60;;;;;;;14.61;58.23;91547.69;4995854;28;20400;-81
2023/08/30 05:00:41;;;;;;;0.60;0.60;;;;;;;14.65;58.19;91548.56;4991096;28;20058;-82
2023/08/30 05:03:07;;;;;;;0.52;0.52;;;;;;;14.66;58.00;91550.88;4993853;28;20042;-81
2023/08/30 05:05:34;;;;;;;0.50;0.50;;;;;;;14.67;57.65;91541.88;4995788;28;20045;-82
2023/08/30 05:08:00;;;;;;;0.52;0.52;;;;;;;14.64;57.95;91545.19;4971266;28;20038;-84
2023/08/30 05:10:26;;;;;;;0.55;0.55;;;;;;;14.65;57.62;91546.69;4992233;28;20480;-83
2023/08/30 05:12:53;;;;;;;0.40;0.40;;;;;;;14.67;57.52;91549.00;4996950;28;20034;-84
2023/08/30 05:15:19;;;;;;;0.38;0.38;;;;;;;14.63;58.09;91562.06;4995979;28;20396;-85
2023/08/30 05:17:46;;;;;;;0.40;0.40;;;;;;;14.65;58.17;91562.50;4978097;28;20055;-81
2023/08/30 05:20:11;;;;;;;0.50;0.50;;;;;;;14.65;59.21;91567.75;4979069;28;20094;-86
2023/08/30 05:22:37;;;;;;;0.57;0.47;;;;;;;14.76;58.53;91576.75;4989387;28;20038;-84
2023/08/30 05:25:03;;;;;;;0.47;0.47;;;;;;;14.75;58.22;91562.03;4994479;28;20030;-84
2023/08/30 05:27:29;;;;;;;0.60;0.60;;;;;;;14.76;58.29;91563.56;4974699;28;20034;-84
2023/08/30 05:29:55;;;;;;;4.78;0.60;;;;;;;14.70;58.95;91561.50;4979023;28;20096;-83
2023/08/30 05:32:22;;;;;;;0.52;0.50;;;;;;;14.70;58.68;91574.66;4995205;28;20038;-83
2023/08/30 05:35:06;;;;;;;0.80;0.55;;;;;;;14.70;58.23;91562.28;5011599;28;20031;-85
2023/08/30 05:37:51;;;;;;;0.40;0.40;;;;;;;14.71;58.64;91569.06;4996676;28;20053;-85
2023/08/30 05:40:23;;;;;;;0.43;0.43;;;;;;;14.71;59.13;91568.31;4992378;28;20492;-84
2023/08/30 05:42:50;;;;;;;0.60;0.60;;;;;;;14.71;58.98;91569.06;4977340;28;20051;-85
2023/08/30 05:45:15;;;;;;;0.70;0.70;;;;;;;14.74;58.86;91573.66;4991996;28;20057;-84
2023/08/30 05:47:41;;;;;;;0.63;0.63;;;;;;;14.77;58.31;91565.13;4953936;28;1201854;-85
2023/08/30 05:50:08;;;;;;;0.57;0.57;;;;;;;14.82;58.72;91573.91;4998804;28;20059;-84
2023/08/30 05:52:33;;;;;;;0.43;0.43;;;;;;;14.84;60.59;91577.72;4996863;28;20037;-85
2023/08/30 05:54:59;;;;;;;0.57;0.55;;;;;;;14.89;59.99;91579.34;4997508;28;20040;-83
2023/08/30 05:57:27;;;;;;;0.68;0.60;;;;;;;14.88;61.14;91583.88;4998077;28;20041;-83
2023/08/30 05:59:53;;;;;;;0.80;0.70;;;;;;;14.96;60.42;91574.28;4999843;28;20037;-85
2023/08/30 06:02:18;;;;;;;0.40;0.40;;;;;;;14.97;60.15;91581.06;5018950;28;20038;-84
2023/08/30 06:04:44;;;;;;;0.98;0.68;;;;;;;15.00;60.76;91580.41;5017494;28;20109;-85
2023/08/30 06:07:09;;;;;;;0.57;0.57;;;;;;;15.02;60.22;91577.44;5000273;28;20038;-85
2023/08/30 06:09:35;;;;;;;0.98;0.70;;;;;;;15.02;59.86;91585.34;5015980;28;20499;-85
2023/08/30 06:12:00;;;;;;;1.85;0.70;;;;;;;15.06;59.90;91575.66;5015419;28;20048;-85
2023/08/30 06:14:26;;;;;;;1.20;0.60;;;;;;;15.07;61.28;91580.59;4998110;28;20040;-85
2023/08/30 06:16:52;;;;;;;0.77;0.60;;;;;;;15.13;60.97;91583.75;4996563;28;20030;-84
2023/08/30 06:19:17;;;;;;;0.60;0.60;;;;;;;15.18;59.99;91594.09;5032372;28;20430;-83
2023/08/30 06:21:43;;;;;;;0.50;0.50;;;;;;;15.26;56.01;91590.50;5021488;28;20042;-85
2023/08/30 06:24:09;;;;;;;0.60;0.60;;;;;;;15.37;57.18;91593.44;5015104;28;20128;-84
2023/08/30 06:26:35;;;;;;;0.70;0.50;;;;;;;15.52;58.06;91595.34;5016295;28;20066;-85
2023/08/30 06:29:00;;;;;;;0.50;0.50;;;;;;;15.53;55.94;91596.88;5014392;28;20029;-85
2023/08/30 06:31:27;;;;;;;1.65;0.60;;;;;;;15.58;56.98;91594.00;5015542;28;20466;-85
2023/08/30 06:33:53;;;;;;;0.40;0.40;;;;;;;15.59;58.12;91595.53;5009835;28;20060;-85
2023/08/30 06:36:18;;;;;;;0.52;0.52;;;;;;;15.65;59.63;91600.53;4994297;28;20033;-84
2023/08/30 06:38:44;;;;;;;0.50;0.50;;;;;;;15.73;56.75;91591.75;4998146;28;20049;-84
2023/08/30 06:41:09;;;;;;;0.70;0.60;;;;;;;15.82;56.00;91602.91;5015010;28;20037;-84
2023/08/30 06:43:35;;;;;;;0.50;0.50;;;;;;;15.94;56.55;91605.47;5015374;28;20026;-84
2023/08/30 06:46:01;;;;;;;0.93;0.57;;;;;;;16.00;55.14;91600.69;4997956;28;20030;-85
2023/08/30 06:48:27;;;;;;;0.50;0.50;;;;;;;16.12;56.37;91599.84;5013723;28;20420;-85
2023/08/30 06:50:52;;;;;;;0.90;0.75;;;;;;;16.16;55.69;91601.44;5015540;28;20045;-84
2023/08/30 06:53:18;;;;;;;0.50;0.50;;;;;;;16.27;55.49;91611.50;4997622;28;20069;-84
2023/08/30 06:55:43;;;;;;;0.50;0.45;;;;;;;16.39;55.77;91603.47;5015483;28;20042;-84
2023/08/30 06:58:09;;;;;;;0.50;0.50;;;;;;;16.56;54.40;91599.72;5014265;28;20052;-84
2023/08/30 07:00:35;;;;;;;0.47;0.47;;;;;;;16.65;56.37;91595.00;5014677;28;20049;-85
2023/08/30 07:03:00;;;;;;;0.60;0.60;;;;;;;16.76;52.87;91596.00;5014057;28;20431;-85
2023/08/30 07:05:26;;;;;;;0.60;0.55;;;;;;;16.90;53.73;91585.00;5007049;28;20510;-83
2023/08/30 07:07:51;;;;;;;0.60;0.60;;;;;;;16.99;56.00;91595.38;5020128;28;20033;-83
2023/08/30 07:10:17;;;;;;;0.98;0.55;;;;;;;17.13;53.77;91597.53;4986226;28;20050;-83
2023/08/30 07:12:45;;;;;;;0.80;0.60;;;;;;;17.22;52.98;91596.19;5019843;28;20040;-82
2023/08/30 07:15:10;;;;;;;0.43;0.43;;;;;;;17.35;53.98;91591.53;5002444;28;20034;-82
2023/08/30 07:17:36;;;;;;;0.65;0.50;;;;;;;17.47;53.26;91596.69;4998812;28;20040;-83
2023/08/30 07:20:03;;;;;;;1.48;0.60;;;;;;;17.63;51.19;91586.00;5015223;28;20084;-83
2023/08/30 07:22:31;;;;;;;0.50;0.50;;;;;;;17.83;52.59;91588.63;4998733;28;20128;-83
2023/08/30 07:24:57;;;;;;;0.77;0.70;;;;;;;17.95;52.75;91588.47;5016257;28;20411;-83
2023/08/30 07:27:23;;;;;;;0.40;0.40;;;;;;;18.04;50.70;91581.06;5014694;28;20033;-82
2023/08/30 07:29:49;;;;;;;0.55;0.50;;;;;;;18.25;51.52;91587.81;5016982;28;20067;-84
2023/08/30 07:32:15;;;;;;;0.45;0.40;;;;;;;18.65;50.93;91589.16;4985985;28;20029;-84
2023/08/30 07:34:41;;;;;;;1.38;0.63;;;;;;;18.70;50.12;91594.16;5013326;28;20038;-83
2023/08/30 07:37:17;;;;;;;0.40;0.40;;;;;;;18.81;50.19;91595.09;4994685;28;20034;-82
2023/08/30 07:39:43;;;;;;;0.40;0.35;;;;;;;18.83;49.63;91598.16;5014332;28;20027;-81
2023/08/30 07:42:08;;;;;;;0.22;0.22;;;;;;;18.86;49.83;91601.97;5015019;28;20033;-86
2023/08/30 07:44:39;;;;;;;0.50;0.50;;;;;;;19.11;48.92;91607.59;4983921;28;20566;-84
2023/08/30 07:47:05;;;;;;;2.38;0.60;;;;;;;19.12;49.13;91611.78;4995867;28;20070;-84
2023/08/30 07:49:30;;;;;;;0.55;0.50;;;;;;;19.20;46.73;91608.09;4983613;28;20408;-84
2023/08/30 07:52:01;;;;;;;0.70;0.52;;;;;;;18.97;49.65;91612.72;5017476;28;20113;-83
2023/08/30 07:54:28;;;;;;;0.77;0.52;;;;;;;18.97;47.43;91623.34;5018053;28;20100;-83
2023/08/30 07:57:00;;;;;;;0.30;0.30;;;;;;;19.07;46.83;91622.69;5011248;28;20026;-84
2023/08/30 07:59:26;;;;;;;0.40;0.40;;;;;;;19.09;46.08;91628.41;5012335;28;20552;-84
2023/08/30 08:01:52;;;;;;;0.30;0.30;;;;;;;19.10;47.09;91627.28;5000692;28;20041;-83
2023/08/30 08:04:19;;;;;;;0.80;0.38;;;;;;;19.18;48.08;91631.53;5005192;28;20046;-83
2023/08/30 08:06:44;;;;;;;0.73;0.60;;;;;;;19.27;49.37;91640.03;5005331;28;20021;-85
2023/08/30 08:09:10;;;;;;;1.65;0.40;;;;;;;19.59;48.96;91636.19;4992831;28;20037;-84
2023/08/30 08:11:35;;;;;;;0.68;0.50;;;;;;;19.85;48.67;91622.09;5000397;28;20037;-83
2023/08/30 08:14:01;;;;;;;1.20;0.60;;;;;;;20.26;49.29;91635.38;5000457;28;20034;-83
2023/08/30 08:16:27;;;;;;;0.88;0.50;;;;;;;20.64;49.33;91634.22;5014536;28;20459;-85
2023/08/30 08:18:53;;;;;;;0.65;0.40;;;;;;;20.90;42.54;91635.91;5014981;28;20101;-85
2023/08/30 08:21:18;;;;;;;1.40;0.30;;;;;;;20.86;43.45;91656.41;5013811;28;20092;-85
2023/08/30 08:23:44;;;;;;;0.45;0.45;;;;;;;21.07;45.37;91660.34;4999873;28;20037;-85
2023/08/30 08:26:10;;;;;;;0.50;0.50;;;;;;;21.22;46.31;91651.31;4983915;28;20228;-85
2023/08/30 08:28:35;;;;;;;0.43;0.32;;;;;;;21.40;45.29;91660.16;4982949;28;20048;-83
2023/08/30 08:31:01;;;;;;;0.50;0.50;;;;;;;21.15;40.60;91661.91;5015952;28;20049;-85
2023/08/30 08:33:26;;;;;;;0.82;0.40;;;;;;;21.21;42.81;91660.44;5015746;28;20045;-85
2023/08/30 08:35:52;;;;;;;0.55;0.40;;;;;;;21.62;44.54;91657.59;5015757;28;20679;-85
2023/08/30 08:38:18;;;;;;;0.50;0.50;;;;;;;21.97;42.25;91656.94;4992213;28;20535;-84
2023/08/30 08:40:43;;;;;;;0.32;0.30;;;;;;;21.95;43.07;91656.59;5013063;28;20045;-84
2023/08/30 08:43:15;;;;;;;2.13;0.40;;;;;;;22.24;39.57;91652.06;5015210;28;20045;-84
2023/08/30 08:45:42;;;;;;;0.40;0.40;;;;;;;22.44;40.17;91662.41;5017873;28;20037;-84
2023/08/30 08:48:08;;;;;;;0.90;0.57;;;;;;;22.17;44.48;91659.28;5007128;28;20170;-83
2023/08/30 08:50:34;;;;;;;0.30;0.30;;;;;;;22.35;43.11;91665.44;4997452;28;20247;-83
2023/08/30 08:53:02;;;;;;;0.85;0.52;;;;;;;21.99;42.12;91667.22;5014806;28;20041;-83
2023/08/30 08:55:30;;;;;;;0.50;0.50;;;;;;;21.75;48.15;91666.00;5012221;28;20570;-82
2023/08/30 08:57:57;;;;;;;0.90;0.60;;;;;;;21.78;47.50;91668.69;4996089;28;20041;-83
2023/08/30 09:00:23;;;;;;;0.70;0.50;;;;;;;21.53;51.45;91673.16;4996826;28;20048;-82
2023/08/30 09:02:51;;;;;;;0.50;0.50;;;;;;;20.82;52.86;91687.53;5016698;28;20095;-82
2023/08/30 09:05:16;;;;;;;2.10;0.70;;;;;;;20.78;51.46;91686.72;5017263;28;20033;-83
2023/08/30 09:07:43;;;;;;;2.65;0.52;;;;;;;20.64;49.87;91684.72;4999126;28;20513;-84
2023/08/30 09:10:09;;;;;;;1.88;0.50;;;;;;;20.68;55.39;91695.41;4999499;28;20069;-84
2023/08/30 09:12:35;;;;;;;0.47;0.45;;;;;;;20.57;57.96;91693.41;5018896;28;20030;-83
2023/08/30 09:15:01;;;;;;;0.95;0.70;;;;;;;20.77;57.57;91693.19;5011537;28;20034;-84
2023/08/30 09:17:37;;;;;;;0.73;0.57;;;;;;;20.45;54.31;91695.56;4989425;28;20033;-85
2023/08/30 09:20:12;;;;;;;2.33;0.65;;;;;;;20.20;56.35;91695.31;5009475;28;20030;-82
2023/08/30 09:22:41;;;;;;;0.75;0.60;;;;;;;20.38;51.61;91696.25;4980673;28;20126;-85
2023/08/30 09:25:23;;;;;;;0.88;0.47;;;;;;;20.18;55.90;91693.03;4998555;28;20403;-83
2023/08/30 09:27:49;;;;;;;0.50;0.50;;;;;;;20.17;55.05;91700.25;5017677;28;20531;-84
2023/08/30 09:30:21;;;;;;;2.10;0.50;;;;;;;20.27;53.47;91695.41;5011321;28;20069;-83
2023/08/30 09:32:47;;;;;;;0.40;0.40;;;;;;;20.14;53.06;91698.28;5018507;28;20033;-83
2023/08/30 09:35:13;;;;;;;0.90;0.50;;;;;;;19.97;54.50;91696.22;5018685;28;20029;-85
2023/08/30 09:37:38;;;;;;;0.68;0.50;;;;;;;20.09;53.40;91703.94;5018256;28;20067;-83
2023/08/30 09:40:05;;;;;;;2.78;0.60;;;;;;;20.28;53.63;91697.66;5000849;28;20030;-84
2023/08/30 09:42:31;;;;;;;1.80;0.60;;;;;;;20.55;53.20;91685.00;4985430;28;20045;-85
2023/08/30 09:44:57;;;;;;;0.55;0.50;;;;;;;20.45;54.85;91693.66;5001492;28;20030;-84
2023/08/30 09:47:29;;;;;;;2.13;0.65;;;;;;;20.66;54.98;91692.34;5018346;28;20120;-83
2023/08/30 09:49:55;;;;;;;1.25;0.43;;;;;;;20.51;54.24;91699.38;4995593;28;20041;-84
2023/08/30 09:52:24;;;;;;;1.27;0.60;;;;;;;20.47;53.97;91698.63;4963226;28;20026;-82
2023/08/30 09:54:51;;;;;;;1.48;0.63;;;;;;;20.28;55.74;91697.66;4962539;28;20050;-84
2023/08/30 09:57:19;;;;;;;0.70;0.52;;;;;;;20.19;53.66;91694.53;4980454;28;20035;-82
2023/08/30 09:59:45;;;;;;;0.45;0.45;;;;;;;20.35;53.75;91703.06;5002374;28;20120;-83
2023/08/30 10:02:11;;;;;;;0.85;0.50;;;;;;;20.36;53.15;91693.19;5000953;28;20030;-84
2023/08/30 10:04:40;;;;;;;0.40;0.40;;;;;;;20.40;55.79;91691.34;5018506;28;20091;-83
2023/08/30 10:07:06;;;;;;;0.52;0.50;;;;;;;20.15;55.71;91688.44;5006010;28;20042;-84
2023/08/30 10:09:33;;;;;;;0.57;0.55;;;;;;;20.48;53.57;91690.25;4973440;28;20411;-84
2023/08/30 10:12:01;;;;;;;1.52;0.70;;;;;;;20.41;52.54;91684.88;4962413;28;20109;-85
2023/08/30 10:14:27;;;;;;;0.68;0.52;;;;;;;20.55;51.79;91685.00;4962493;28;20074;-84
2023/08/30 10:17:03;;;;;;;0.40;0.40;;;;;;;20.63;52.03;91685.88;4976044;28;20022;-85
2023/08/30 10:19:29;;;;;;;1.70;0.57;;;;;;;20.81;51.00;91686.00;4982149;28;20114;-84
2023/08/30 10:22:09;;;;;;;1.58;0.68;;;;;;;20.96;52.26;91686.84;4977571;28;20042;-84
2023/08/30 10:24:58;;;;;;;0.68;0.40;;;;;;;20.82;51.01;91681.44;4966073;28;20122;-83
2023/08/30 10:27:25;;;;;;;1.08;0.63;;;;;;;20.79;52.03;91682.94;4992710;28;20130;-83
2023/08/30 10:29:51;;;;;;;1.75;0.57;;;;;;;20.81;51.06;91675.38;4996736;28;20188;-84
2023/08/30 10:32:24;;;;;;;1.30;0.70;;;;;;;20.68;48.99;91674.13;4997206;28;20050;-85
2023/08/30 10:34:50;;;;;;;1.45;0.60;;;;;;;20.64;49.02;91670.66;4997297;28;20046;-84
2023/08/30 10:37:21;;;;;;;0.57;0.55;;;;;;;20.65;53.62;91682.81;4980251;28;20433;-83
2023/08/30 10:39:49;;;;;;;1.25;0.60;;;;;;;20.72;50.48;91682.91;4997865;28;20094;-84
2023/08/30 10:42:16;;;;;;;0.47;0.47;;;;;;;20.85;51.41;91681.47;4994342;28;20022;-84
2023/08/30 10:45:11;;;;;;;0.60;0.60;;;;;;;20.88;54.41;91669.34;4987358;28;20050;-83
2023/08/30 10:47:38;;;;;;;0.52;0.52;;;;;;;21.01;50.96;91667.91;4986259;28;20336;-82
2023/08/30 10:50:08;;;;;;;0.47;0.43;;;;;;;20.97;51.99;91662.56;5013814;28;20465;-85
2023/08/30 10:52:35;;;;;;;0.63;0.60;;;;;;;21.05;49.56;91676.66;5015148;28;20120;-84
2023/08/30 10:55:11;;;;;;;1.02;0.63;;;;;;;21.08;50.78;91667.94;5015908;28;20353;-83
2023/08/30 10:57:37;;;;;;;0.73;0.60;;;;;;;21.21;50.25;91671.06;5016526;28;20044;-83
2023/08/30 11:00:05;;;;;;;1.15;0.63;;;;;;;21.24;51.19;91672.22;5014224;28;20029;-84
2023/08/30 11:02:32;;;;;;;0.80;0.50;;;;;;;21.00;49.32;91663.72;4979359;28;20038;-84
2023/08/30 11:04:59;;;;;;;0.73;0.50;;;;;;;21.08;50.16;91662.63;4997065;28;20030;-84
2023/08/30 11:07:25;;;;;;;0.85;0.63;;;;;;;21.06;49.86;91662.22;4997348;28;20038;-84
2023/08/30 11:09:55;;;;;;;0.93;0.40;;;;;;;21.10;50.66;91665.69;4997109;28;20032;-83
2023/08/30 11:12:25;;;;;;;1.05;0.47;;;;;;;21.33;49.37;91678.75;5015060;28;20061;-83
2023/08/30 11:14:54;;;;;;;1.00;0.57;;;;;;;21.19;48.57;91673.34;5016249;28;20046;-82
2023/08/30 11:17:20;;;;;;;0.95;0.57;;;;;;;21.36;49.26;91677.97;4998331;28;20121;-82
2023/08/30 11:19:46;;;;;;;0.75;0.60;;;;;;;21.50;48.68;91679.22;5016759;28;20057;-82
2023/08/30 11:22:16;;;;;;;0.55;0.52;;;;;;;21.47;48.60;91672.00;4998700;28;20029;-82
2023/08/30 11:24:43;;;;;;;0.68;0.60;;;;;;;21.23;49.44;91663.47;4982104;28;20454;-84
2023/08/30 11:27:09;;;;;;;0.65;0.40;;;;;;;21.27;48.74;91668.81;4998602;28;20690;-84
2023/08/30 11:29:35;;;;;;;0.60;0.50;;;;;;;21.34;47.94;91671.50;4983094;28;20038;-84
2023/08/30 11:32:01;;;;;;;0.85;0.57;;;;;;;21.55;52.18;91660.25;5016553;28;20026;-84
2023/08/30 11:34:27;;;;;;;0.50;0.50;;;;;;;21.69;51.27;91675.50;4998627;28;20101;-85